Time;durP1;ratioP1;P1;durP2;ratioP2;P2;SDS_P1;SDS_P2;PMS_P1;PMS_P2;Temp;Humidity;BMP_temperature;BMP_pressure;BME280_temperature;BME280_humidity;BME280_pressure;Samples;Min_cycle;Max_cycle;Signal;HPM_P1;HPM_P2
2022/07/01 00:00:07;;;;;;;2.83;0.43;;;;;;;15.07;96.15;98770.28;5012539;28;20665;-50
2022/07/01 00:02:41;;;;;;;0.73;0.50;;;;;;;15.03;96.10;98768.00;5013015;28;20219;-50
2022/07/01 00:05:08;;;;;;;1.13;0.30;;;;;;;15.05;95.70;98776.53;5014818;28;20215;-50
2022/07/01 00:07:45;;;;;;;1.33;0.50;;;;;;;15.11;96.55;98777.63;5015528;28;20198;-49
2022/07/01 00:10:11;;;;;;;1.53;0.57;;;;;;;15.04;92.49;98772.28;5014190;28;20724;-49
2022/07/01 00:12:38;;;;;;;1.10;0.57;;;;;;;15.06;93.27;98774.69;5012785;28;20255;-51
2022/07/01 00:15:06;;;;;;;0.77;0.33;;;;;;;15.05;94.09;98771.28;5012636;28;20195;-49
2022/07/01 00:17:33;;;;;;;0.83;0.70;;;;;;;15.12;93.54;98768.75;5014349;28;20205;-49
2022/07/01 00:20:02;;;;;;;1.07;0.60;;;;;;;15.02;92.26;98766.38;5013996;28;20213;-49
2022/07/01 00:22:28;;;;;;;1.00;0.50;;;;;;;15.02;92.16;98766.38;5013993;28;20202;-49
2022/07/01 00:24:56;;;;;;;1.90;0.60;;;;;;;14.97;92.25;98766.06;5012518;28;20239;-49
2022/07/01 00:27:23;;;;;;;5.83;0.63;;;;;;;15.00;93.77;98773.59;5016370;28;20213;-49
2022/07/01 00:29:50;;;;;;;0.80;0.50;;;;;;;14.99;92.84;98765.88;5012709;28;20210;-50
2022/07/01 00:32:18;;;;;;;1.13;0.50;;;;;;;14.99;92.60;98787.75;5012402;28;20764;-49
2022/07/01 00:34:45;;;;;;;1.00;0.60;;;;;;;14.94;92.51;98791.88;5008185;28;20680;-49
2022/07/01 00:37:13;;;;;;;2.80;0.50;;;;;;;14.94;92.50;98791.88;5013410;28;20469;-49
2022/07/01 00:39:40;;;;;;;1.20;0.50;;;;;;;14.97;93.97;98783.63;5014158;28;20201;-49
2022/07/01 00:42:07;;;;;;;4.47;0.50;;;;;;;14.94;93.99;98800.59;5013041;28;20740;-49
2022/07/01 00:44:35;;;;;;;1.47;0.60;;;;;;;14.94;92.89;98791.88;5012819;28;20192;-49
2022/07/01 00:47:08;;;;;;;3.93;0.60;;;;;;;14.95;93.09;98801.41;5010105;28;20250;-49
2022/07/01 00:49:36;;;;;;;0.80;0.50;;;;;;;14.90;91.64;98804.56;5015662;28;20695;-49
2022/07/01 00:52:04;;;;;;;0.80;0.47;;;;;;;14.90;92.50;98794.84;5012475;28;20216;-49
2022/07/01 00:54:36;;;;;;;1.60;0.50;;;;;;;15.01;93.34;98796.28;5013793;28;20200;-49
2022/07/01 00:57:07;;;;;;;1.17;0.50;;;;;;;15.03;93.34;98788.19;5012770;28;20201;-49
2022/07/01 00:59:35;;;;;;;3.43;0.87;;;;;;;14.96;91.41;98800.41;5013038;28;20204;-49
2022/07/01 01:02:02;;;;;;;2.07;0.30;;;;;;;15.01;92.46;98805.97;5012802;28;20293;-49
2022/07/01 01:04:28;;;;;;;2.23;0.90;;;;;;;14.97;91.37;98802.03;5015224;28;20606;-49
2022/07/01 01:06:57;;;;;;;1.03;0.50;;;;;;;14.92;91.00;98799.94;5013158;28;20212;-49
2022/07/01 01:09:23;;;;;;;6.00;0.70;;;;;;;14.91;90.47;98800.94;5011784;28;20201;-49
2022/07/01 01:11:51;;;;;;;2.30;0.63;;;;;;;14.84;91.11;98805.25;5012681;28;20216;-49
2022/07/01 01:14:19;;;;;;;0.77;0.50;;;;;;;14.87;89.79;98799.66;5020272;28;20618;-50
2022/07/01 01:16:46;;;;;;;1.50;0.70;;;;;;;14.83;89.51;98811.50;5014827;28;20218;-49
2022/07/01 01:19:13;;;;;;;3.07;0.87;;;;;;;14.79;90.07;98807.59;5017967;28;20212;-49
2022/07/01 01:21:41;;;;;;;0.80;0.80;;;;;;;14.80;90.63;98804.81;5016006;28;20315;-49
2022/07/01 01:24:09;;;;;;;1.47;1.37;;;;;;;14.82;91.24;98802.81;5017034;28;20246;-49
2022/07/01 01:26:38;;;;;;;3.93;0.90;;;;;;;14.83;91.82;98798.38;5016211;28;20299;-49
2022/07/01 01:29:07;;;;;;;0.67;0.60;;;;;;;14.81;92.36;98798.56;5016229;28;20278;-49
2022/07/01 01:31:35;;;;;;;1.23;1.03;;;;;;;14.83;91.80;98796.56;5013464;28;20237;-49
2022/07/01 01:34:03;;;;;;;2.23;0.70;;;;;;;14.84;92.34;98790.28;5011145;28;20231;-49
2022/07/01 01:36:30;;;;;;;3.30;0.90;;;;;;;14.86;93.17;98793.56;5016342;28;20197;-49
2022/07/01 01:39:02;;;;;;;2.63;1.00;;;;;;;14.81;92.13;98784.59;5018696;28;20211;-49
2022/07/01 01:41:30;;;;;;;4.13;1.30;;;;;;;14.78;91.70;98784.94;5016697;28;20306;-49
2022/07/01 01:43:57;;;;;;;2.63;1.10;;;;;;;14.77;91.96;98773.63;5015394;28;20716;-49
2022/07/01 01:46:24;;;;;;;1.90;1.10;;;;;;;14.68;90.96;98788.56;5015607;28;20217;-49
2022/07/01 01:48:52;;;;;;;2.60;1.50;;;;;;;14.67;92.04;98779.06;5016318;28;20198;-49
2022/07/01 01:51:19;;;;;;;2.00;0.93;;;;;;;14.66;90.96;98785.28;5017291;28;20223;-49
2022/07/01 01:53:46;;;;;;;1.20;1.10;;;;;;;14.66;92.03;98766.91;5014356;28;20228;-49
2022/07/01 01:56:15;;;;;;;2.50;1.20;;;;;;;14.66;93.86;98784.50;5016949;28;20219;-49
2022/07/01 01:58:44;;;;;;;2.83;1.17;;;;;;;14.66;94.46;98797.63;5016153;28;20230;-51
2022/07/01 02:01:10;;;;;;;2.30;1.33;;;;;;;14.71;95.54;98800.59;5016693;28;20236;-49
2022/07/01 02:03:37;;;;;;;1.83;1.20;;;;;;;14.74;95.52;98800.25;5016470;28;20219;-49
2022/07/01 02:06:04;;;;;;;2.10;1.27;;;;;;;14.78;95.97;98803.31;5014600;28;20230;-49
2022/07/01 02:08:32;;;;;;;2.07;1.17;;;;;;;14.74;96.16;98798.41;5017035;28;20262;-49
2022/07/01 02:10:59;;;;;;;4.40;1.30;;;;;;;14.73;97.53;98782.84;5014952;28;20221;-49
2022/07/01 02:13:28;;;;;;;1.50;1.23;;;;;;;14.66;97.01;98793.19;5016017;28;20663;-49
2022/07/01 02:15:55;;;;;;;1.37;1.27;;;;;;;14.64;96.66;98795.16;5015513;28;20610;-49
2022/07/01 02:18:22;;;;;;;2.73;1.17;;;;;;;14.63;97.23;98803.22;5017102;28;20653;-49
2022/07/01 02:20:50;;;;;;;3.33;1.30;;;;;;;14.57;97.89;98805.56;5016692;28;20314;-49
2022/07/01 02:23:17;;;;;;;3.73;1.40;;;;;;;14.57;99.09;98799.47;5018049;28;20191;-49
2022/07/01 02:25:46;;;;;;;2.90;1.47;;;;;;;14.58;99.64;98796.69;5014659;28;20678;-49
2022/07/01 02:28:13;;;;;;;2.10;1.40;;;;;;;14.52;99.98;98786.88;5016124;28;20199;-49
2022/07/01 02:30:42;;;;;;;2.10;1.30;;;;;;;14.47;99.69;98782.09;5014282;28;20323;-48
2022/07/01 02:33:09;;;;;;;1.83;1.30;;;;;;;14.49;100.00;98776.69;5015345;28;20691;-49
2022/07/01 02:35:39;;;;;;;1.93;1.20;;;;;;;14.47;100.00;98782.09;5013263;28;20221;-49
2022/07/01 02:38:07;;;;;;;2.10;1.20;;;;;;;14.43;100.00;98786.06;5013188;28;20242;-49
2022/07/01 02:40:37;;;;;;;1.90;1.50;;;;;;;14.45;100.00;98804.28;5016368;28;20555;-50
2022/07/01 02:43:04;;;;;;;1.70;1.50;;;;;;;14.48;100.00;98801.31;5014676;28;20592;-49
2022/07/01 02:45:31;;;;;;;2.77;1.50;;;;;;;14.42;100.00;98808.06;5016281;28;20189;-49
2022/07/01 02:48:01;;;;;;;2.93;1.60;;;;;;;14.41;100.00;98803.00;5014725;28;20204;-49
2022/07/01 02:50:28;;;;;;;2.57;1.60;;;;;;;14.42;100.00;98794.13;5016685;28;20727;-49
2022/07/01 02:52:56;;;;;;;1.63;1.27;;;;;;;14.34;100.00;98783.66;5014739;28;20691;-49
2022/07/01 02:55:23;;;;;;;2.03;1.20;;;;;;;14.18;100.00;98780.13;5014732;28;20254;-49
2022/07/01 02:57:51;;;;;;;1.53;0.90;;;;;;;14.15;100.00;98790.97;5014856;28;20196;-49
2022/07/01 03:00:20;;;;;;;1.57;1.10;;;;;;;14.08;100.00;98785.59;5016978;28;20222;-49
2022/07/01 03:02:47;;;;;;;3.17;1.10;;;;;;;14.09;100.00;98781.13;5014628;28;20196;-49
2022/07/01 03:05:16;;;;;;;1.27;0.87;;;;;;;13.89;100.00;98786.75;5016916;28;20196;-49
2022/07/01 03:07:43;;;;;;;1.73;1.10;;;;;;;13.93;100.00;98797.75;5013639;28;20233;-49
2022/07/01 03:10:11;;;;;;;1.20;0.90;;;;;;;13.84;100.00;98810.06;5014520;28;20229;-49
2022/07/01 03:12:58;;;;;;;4.37;1.13;;;;;;;13.81;100.00;98820.91;5016150;28;20558;-49
2022/07/01 03:15:25;;;;;;;1.50;1.10;;;;;;;13.80;100.00;98825.34;5015566;28;20186;-50
2022/07/01 03:17:52;;;;;;;1.23;1.00;;;;;;;13.82;100.00;98823.38;5014625;28;20205;-49
2022/07/01 03:20:20;;;;;;;2.93;1.03;;;;;;;13.80;100.00;98822.72;5013939;28;20708;-49
2022/07/01 03:22:48;;;;;;;3.13;0.80;;;;;;;13.83;100.00;98824.16;5013463;28;20205;-49
2022/07/01 03:25:15;;;;;;;1.13;0.83;;;;;;;13.87;100.00;98833.34;5016006;28;20198;-49
2022/07/01 03:27:45;;;;;;;1.97;0.70;;;;;;;13.87;100.00;98834.19;5013689;28;20206;-49
2022/07/01 03:30:13;;;;;;;1.53;0.90;;;;;;;13.92;100.00;98830.25;5015395;28;20264;-49
2022/07/01 03:32:40;;;;;;;4.97;0.80;;;;;;;13.93;100.00;98822.19;5016572;28;20245;-49
2022/07/01 03:37:50;;;;;;;2.63;0.60;;;;;;;13.92;100.00;98835.47;5011827;28;20561;-49
2022/07/01 03:40:17;;;;;;;3.27;0.70;;;;;;;13.98;100.00;98856.63;5010745;28;20208;-49
2022/07/01 03:42:44;;;;;;;3.37;0.70;;;;;;;14.07;100.00;98869.72;5019091;28;20202;-50
2022/07/01 03:45:11;;;;;;;2.63;0.70;;;;;;;14.13;100.00;98877.75;5006545;28;20197;-48
2022/07/01 03:47:38;;;;;;;2.53;0.80;;;;;;;14.10;100.00;98877.25;5013129;28;20214;-49
2022/07/01 03:50:06;;;;;;;4.47;0.90;;;;;;;14.11;100.00;98886.78;5014938;28;20709;-49
2022/07/01 03:52:33;;;;;;;1.70;1.43;;;;;;;14.15;100.00;98896.78;5014799;28;20248;-49
2022/07/01 03:55:19;;;;;;;2.70;1.00;;;;;;;14.15;100.00;98891.53;5015276;28;20551;-49
2022/07/01 03:57:46;;;;;;;1.30;0.87;;;;;;;14.13;100.00;98893.53;5012888;28;20272;-49
2022/07/01 04:00:14;;;;;;;2.30;0.80;;;;;;;14.15;100.00;98882.84;5014021;28;20233;-49
2022/07/01 04:02:41;;;;;;;3.90;0.90;;;;;;;14.11;100.00;98884.16;5013310;28;20699;-49
2022/07/01 04:05:08;;;;;;;1.67;0.70;;;;;;;14.10;100.00;98878.09;5013789;28;20281;-49
2022/07/01 04:07:36;;;;;;;1.97;0.70;;;;;;;14.11;100.00;98889.41;5016554;28;20309;-49
2022/07/01 04:10:03;;;;;;;1.33;0.80;;;;;;;14.13;100.00;98892.69;5013241;28;20881;-49
2022/07/01 04:12:31;;;;;;;0.83;0.63;;;;;;;14.16;100.00;98880.06;5014407;28;20249;-49
2022/07/01 04:14:58;;;;;;;2.57;0.60;;;;;;;14.16;100.00;98881.84;5012104;28;20210;-49
2022/07/01 04:17:25;;;;;;;2.53;0.83;;;;;;;14.13;100.00;98884.81;5015521;28;20302;-49
2022/07/01 04:19:53;;;;;;;3.47;0.70;;;;;;;14.12;100.00;98901.53;5011727;28;20206;-49
2022/07/01 04:22:33;;;;;;;2.77;0.70;;;;;;;14.12;100.00;98902.38;5013884;28;20671;-49
2022/07/01 04:25:03;;;;;;;1.43;0.77;;;;;;;14.12;100.00;98896.28;5014055;28;20198;-49
2022/07/01 04:27:31;;;;;;;2.63;0.60;;;;;;;14.18;100.00;98893.00;5013698;28;20223;-49
2022/07/01 04:29:59;;;;;;;2.63;0.63;;;;;;;14.13;100.00;98890.91;5013302;28;20286;-49
2022/07/01 04:32:26;;;;;;;1.13;0.57;;;;;;;14.21;100.00;98897.91;5013937;28;20553;-49
2022/07/01 04:34:53;;;;;;;0.90;0.60;;;;;;;14.23;100.00;98897.75;5013516;28;20614;-49
2022/07/01 04:37:20;;;;;;;0.80;0.70;;;;;;;14.23;98.98;98911.69;5008891;28;20203;-49
2022/07/01 04:39:47;;;;;;;2.37;0.73;;;;;;;14.26;99.45;98906.13;5013708;28;20191;-49
2022/07/01 04:42:14;;;;;;;1.33;0.60;;;;;;;14.28;99.67;98908.59;5013161;28;20286;-50
2022/07/01 04:44:44;;;;;;;1.13;0.60;;;;;;;14.26;100.00;98900.84;5013238;28;20574;-49
2022/07/01 04:47:10;;;;;;;1.23;0.80;;;;;;;14.25;100.00;98883.47;5013995;28;20666;-49
2022/07/01 04:49:37;;;;;;;1.67;0.80;;;;;;;14.26;100.00;98874.59;5016721;28;20203;-49
2022/07/01 04:52:05;;;;;;;1.33;0.70;;;;;;;14.30;99.79;98869.84;5013181;28;20202;-49
2022/07/01 04:54:52;;;;;;;1.60;0.60;;;;;;;14.35;99.61;98864.88;5017007;28;20211;-49
2022/07/01 04:57:18;;;;;;;1.50;0.60;;;;;;;14.39;98.39;98875.88;5017476;28;20203;-49
2022/07/01 04:59:46;;;;;;;1.17;0.60;;;;;;;14.41;98.42;98884.41;5017155;28;20197;-49
2022/07/01 05:02:13;;;;;;;3.43;0.70;;;;;;;14.50;97.74;98879.94;5018237;28;20184;-49
2022/07/01 05:04:41;;;;;;;1.07;0.50;;;;;;;14.51;95.58;98874.53;5016011;28;20883;-50
2022/07/01 05:07:27;;;;;;;1.80;0.60;;;;;;;14.54;96.30;98875.97;5018676;28;20277;-50
2022/07/01 05:09:55;;;;;;;0.83;0.40;;;;;;;14.52;96.38;98867.44;5014920;28;20727;-49
2022/07/01 05:12:22;;;;;;;2.10;0.50;;;;;;;14.50;95.22;98875.53;5017190;28;20281;-49
2022/07/01 05:14:51;;;;;;;0.73;0.60;;;;;;;14.51;98.21;98879.78;5017169;28;20261;-49
2022/07/01 05:17:18;;;;;;;0.97;0.63;;;;;;;14.51;99.23;98878.94;5015520;28;20722;-51
2022/07/01 05:22:31;;;;;;;0.50;0.50;;;;;;;14.47;98.05;98873.22;5017599;28;20269;-49
2022/07/01 05:24:58;;;;;;;0.73;0.53;;;;;;;14.38;97.81;98859.28;5016268;28;20241;-49
2022/07/01 05:27:25;;;;;;;1.10;0.60;;;;;;;14.43;98.96;98870.09;5020030;28;20670;-49
2022/07/01 05:29:53;;;;;;;0.70;0.40;;;;;;;14.41;98.33;98869.47;5015954;28;20281;-49
2022/07/01 05:32:20;;;;;;;2.83;0.80;;;;;;;14.38;98.29;98869.78;5015951;28;20207;-49
2022/07/01 05:34:47;;;;;;;3.07;0.60;;;;;;;14.38;98.75;98895.25;5017044;28;20196;-49
2022/07/01 05:37:16;;;;;;;2.40;0.70;;;;;;;14.39;100.00;98897.69;5016726;28;20572;-49
2022/07/01 05:39:44;;;;;;;1.03;0.70;;;;;;;14.40;100.00;98899.34;5014182;28;20291;-49
2022/07/01 05:42:11;;;;;;;1.30;0.80;;;;;;;14.41;99.85;98910.66;5019836;28;20196;-49
2022/07/01 05:44:38;;;;;;;1.07;0.63;;;;;;;14.38;99.64;98911.81;5019028;28;20199;-49
2022/07/01 05:47:06;;;;;;;0.93;0.50;;;;;;;14.35;98.22;98916.59;5016517;28;20703;-49
2022/07/01 05:49:34;;;;;;;0.97;0.50;;;;;;;14.38;97.61;98918.88;5017508;28;20202;-49
2022/07/01 05:52:01;;;;;;;3.03;0.80;;;;;;;14.40;97.35;98924.78;5017596;28;20624;-49
2022/07/01 05:54:28;;;;;;;3.13;0.60;;;;;;;14.40;97.21;98925.59;5018057;28;20209;-49
2022/07/01 05:56:55;;;;;;;3.83;0.60;;;;;;;14.34;96.62;98928.09;5018864;28;20196;-50
2022/07/01 05:59:21;;;;;;;3.00;0.70;;;;;;;14.44;96.49;98926.91;5018162;28;20205;-49
2022/07/01 06:01:50;;;;;;;1.87;0.77;;;;;;;14.49;97.26;98929.03;5016997;28;20281;-49
2022/07/01 06:04:18;;;;;;;1.07;0.70;;;;;;;14.48;97.77;98919.53;5019524;28;20643;-49
2022/07/01 06:06:45;;;;;;;2.63;0.60;;;;;;;14.50;97.26;98921.97;5016933;28;20215;-49
2022/07/01 06:09:12;;;;;;;4.07;0.90;;;;;;;14.51;96.48;98928.84;5016026;28;20200;-49
2022/07/01 06:11:39;;;;;;;3.20;0.83;;;;;;;14.55;96.40;98928.38;5016137;28;20303;-49
2022/07/01 06:14:07;;;;;;;4.30;0.70;;;;;;;14.52;95.21;98926.06;5016935;28;20297;-49
2022/07/01 06:16:33;;;;;;;0.77;0.70;;;;;;;14.42;94.86;98922.81;5016590;28;20199;-49
2022/07/01 06:19:00;;;;;;;2.67;0.80;;;;;;;14.41;95.28;98915.94;5018564;28;20690;-49
2022/07/01 06:21:29;;;;;;;2.23;0.70;;;;;;;14.41;94.09;98921.19;5017757;28;20204;-49
2022/07/01 06:23:56;;;;;;;3.63;0.73;;;;;;;14.45;95.76;98919.84;5017207;28;20238;-49
2022/07/01 06:26:24;;;;;;;4.23;0.70;;;;;;;14.52;96.60;98931.31;5017071;28;20213;-50
2022/07/01 06:28:50;;;;;;;0.50;0.50;;;;;;;14.56;97.93;98937.88;5015184;28;20583;-50
2022/07/01 06:31:17;;;;;;;1.80;0.70;;;;;;;14.66;98.31;98942.94;5019465;28;20276;-51
2022/07/01 06:33:44;;;;;;;1.93;0.63;;;;;;;14.71;98.24;98924.88;5020854;28;20203;-51
2022/07/01 06:36:13;;;;;;;2.53;0.90;;;;;;;14.74;97.24;98936.88;5017740;28;20203;-52
2022/07/01 06:38:42;;;;;;;2.30;0.77;;;;;;;14.80;96.72;98935.34;5009121;28;20199;-49
2022/07/01 06:41:27;;;;;;;2.17;0.80;;;;;;;14.76;95.34;98935.69;5015845;28;20240;-51
2022/07/01 06:43:54;;;;;;;2.90;0.80;;;;;;;14.71;97.42;98951.16;5016127;28;20473;-49
2022/07/01 06:46:22;;;;;;;1.40;0.70;;;;;;;14.73;97.45;98956.25;5017214;28;20191;-52
2022/07/01 06:48:48;;;;;;;1.63;0.70;;;;;;;14.74;97.48;98958.69;5017557;28;20214;-49
2022/07/01 06:51:15;;;;;;;1.60;0.63;;;;;;;14.63;95.02;98961.66;5017919;28;20222;-49
2022/07/01 06:53:46;;;;;;;2.10;0.60;;;;;;;14.60;96.37;98956.75;5016000;28;20207;-48
2022/07/01 06:56:13;;;;;;;2.00;0.70;;;;;;;14.59;96.74;98965.59;5014085;28;20744;-49
2022/07/01 06:58:41;;;;;;;1.03;0.67;;;;;;;14.57;96.37;98959.69;5018584;28;20208;-49
2022/07/01 07:01:08;;;;;;;2.53;0.90;;;;;;;14.58;96.80;98949.03;5016153;28;20207;-49
2022/07/01 07:03:34;;;;;;;1.17;0.70;;;;;;;14.55;96.69;98944.13;5017304;28;20583;-49
2022/07/01 07:06:03;;;;;;;3.23;0.87;;;;;;;14.58;96.88;98948.22;5016424;28;20273;-50
2022/07/01 07:08:31;;;;;;;1.73;0.80;;;;;;;14.65;96.13;98948.38;5016017;28;21486;-49
2022/07/01 07:11:19;;;;;;;2.07;1.00;;;;;;;14.66;96.03;98950.00;5016665;28;20214;-49
2022/07/01 07:13:46;;;;;;;3.23;0.80;;;;;;;14.65;95.04;98941.28;5014807;28;20189;-49
2022/07/01 07:16:13;;;;;;;2.57;0.80;;;;;;;14.68;97.37;98935.69;5014605;28;20195;-49
2022/07/01 07:18:40;;;;;;;2.20;0.80;;;;;;;14.64;97.93;98921.25;5015303;28;20187;-49
2022/07/01 07:21:07;;;;;;;1.70;1.00;;;;;;;14.59;97.17;98913.91;5015035;28;20594;-49
2022/07/01 07:23:35;;;;;;;3.40;1.23;;;;;;;14.48;98.86;98924.78;5015478;28;20202;-49
2022/07/01 07:26:01;;;;;;;4.43;1.27;;;;;;;14.39;98.94;98950.22;5016159;28;20194;-49
2022/07/01 07:28:30;;;;;;;4.30;1.23;;;;;;;14.43;99.11;98953.34;5015407;28;20215;-49
2022/07/01 07:30:57;;;;;;;3.30;0.97;;;;;;;14.47;98.91;98954.66;5015536;28;20325;-49
2022/07/01 07:33:24;;;;;;;3.57;0.93;;;;;;;14.46;99.17;98956.44;5018596;28;20209;-49
2022/07/01 07:35:52;;;;;;;3.77;0.90;;;;;;;14.41;98.31;98955.31;5015633;28;20195;-49
2022/07/01 07:38:18;;;;;;;2.00;1.03;;;;;;;14.44;99.27;98947.09;5018720;28;20195;-49
2022/07/01 07:40:46;;;;;;;1.90;1.03;;;;;;;14.46;99.29;98942.50;5007056;28;20309;-51
2022/07/01 07:43:13;;;;;;;2.93;1.70;;;;;;;14.55;97.92;98945.91;5012746;28;20284;-50
2022/07/01 07:45:41;;;;;;;1.57;1.20;;;;;;;14.67;99.75;98947.19;5012907;28;20187;-49
2022/07/01 07:48:09;;;;;;;1.17;1.03;;;;;;;14.82;97.63;98960.50;5016052;28;20248;-49
2022/07/01 07:50:36;;;;;;;4.40;1.17;;;;;;;15.08;97.74;98956.75;5015392;28;20683;-49
2022/07/01 07:53:03;;;;;;;2.47;1.10;;;;;;;15.31;97.89;98974.38;5013395;28;20707;-50
2022/07/01 07:55:48;;;;;;;1.87;1.13;;;;;;;15.52;97.06;98988.75;5015418;28;20219;-49
2022/07/01 07:58:15;;;;;;;2.77;1.20;;;;;;;15.62;95.92;98989.34;5016626;28;20665;-49
2022/07/01 08:00:43;;;;;;;2.47;1.20;;;;;;;15.54;92.64;98984.94;5012809;28;20216;-49
2022/07/01 08:03:10;;;;;;;4.03;1.10;;;;;;;15.56;93.11;98990.03;5012820;28;20568;-50
2022/07/01 08:05:36;;;;;;;1.53;1.00;;;;;;;15.52;91.53;98991.38;5013338;28;20576;-50
2022/07/01 08:08:04;;;;;;;2.17;1.20;;;;;;;15.59;91.67;98993.13;5014329;28;20206;-50
2022/07/01 08:10:32;;;;;;;4.30;1.37;;;;;;;15.65;89.27;98996.88;5012336;28;20226;-49
2022/07/01 08:13:03;;;;;;;2.37;1.10;;;;;;;15.92;90.30;99007.88;5012736;28;20198;-50
2022/07/01 08:15:50;;;;;;;3.27;1.30;;;;;;;15.98;90.46;99004.56;5014284;28;20561;-51
2022/07/01 08:18:18;;;;;;;2.30;1.20;;;;;;;16.13;90.89;99001.16;5015944;28;20187;-49
2022/07/01 08:20:45;;;;;;;1.33;0.87;;;;;;;16.47;87.50;99002.50;5012954;28;20213;-50
2022/07/01 08:23:12;;;;;;;1.50;0.97;;;;;;;16.83;86.11;99020.25;5015477;28;20192;-50
2022/07/01 08:25:39;;;;;;;2.67;1.17;;;;;;;17.09;85.79;99030.34;4998211;28;20709;-50
2022/07/01 08:28:06;;;;;;;1.70;1.07;;;;;;;17.40;86.38;99029.31;5004414;28;20230;-49
2022/07/01 08:30:33;;;;;;;0.60;0.60;;;;;;;17.76;80.22;99030.31;5006102;28;20268;-50
2022/07/01 08:33:01;;;;;;;3.60;0.70;;;;;;;18.26;77.52;99037.47;5004476;28;20243;-50
2022/07/01 08:35:47;;;;;;;2.70;0.90;;;;;;;18.59;72.99;99031.63;5008927;28;20223;-50
2022/07/01 08:38:32;;;;;;;1.53;0.70;;;;;;;18.69;67.64;99036.56;5005815;28;20294;-49
2022/07/01 08:41:01;;;;;;;1.70;0.57;;;;;;;18.72;64.71;99028.25;5006379;28;20299;-50
2022/07/01 08:43:28;;;;;;;2.40;0.50;;;;;;;18.76;63.24;99034.78;4998751;28;20581;-49
2022/07/01 08:45:55;;;;;;;0.70;0.60;;;;;;;18.56;63.74;99043.38;5011084;28;20582;-50
2022/07/01 08:48:24;;;;;;;0.73;0.43;;;;;;;18.56;65.19;99026.72;5005120;28;21164;-49
2022/07/01 08:50:51;;;;;;;0.93;0.50;;;;;;;18.63;67.03;99027.59;5003996;28;20295;-49
2022/07/01 08:53:18;;;;;;;0.70;0.50;;;;;;;18.88;67.28;99035.06;5006112;28;20200;-49
2022/07/01 08:58:30;;;;;;;1.17;0.40;;;;;;;19.14;62.10;99037.06;4968486;28;20754;-49
2022/07/01 09:01:15;;;;;;;0.50;0.40;;;;;;;19.31;65.06;99031.44;5005194;28;20613;-50
2022/07/01 09:03:45;;;;;;;1.17;0.67;;;;;;;19.14;63.66;99026.47;5003924;28;20751;-49
2022/07/01 09:06:15;;;;;;;0.80;0.53;;;;;;;19.16;65.13;99029.75;5007611;28;20218;-51
2022/07/01 09:08:43;;;;;;;2.07;0.60;;;;;;;18.89;63.45;99026.13;5007279;28;20221;-50
2022/07/01 09:11:14;;;;;;;1.67;0.60;;;;;;;18.88;64.33;99027.13;5004944;28;20211;-48
2022/07/01 09:13:41;;;;;;;0.60;0.50;;;;;;;19.09;65.30;99022.75;5010559;28;20208;-50
2022/07/01 09:16:17;;;;;;;1.13;0.40;;;;;;;19.42;63.58;99032.69;5004641;28;20642;-49
2022/07/01 09:21:39;;;;;;;1.10;0.63;;;;;;;18.96;63.04;99024.34;5070628;27;21075;-49
2022/07/01 09:24:23;;;;;;;0.60;0.53;;;;;;;18.79;66.38;99026.47;5059229;28;20203;-49
2022/07/01 09:26:53;;;;;;;1.13;0.60;;;;;;;19.11;65.11;99040.09;5060939;28;20261;-49
2022/07/01 09:29:20;;;;;;;2.50;0.70;;;;;;;19.38;61.87;99028.78;5062298;28;20286;-49
2022/07/01 09:31:49;;;;;;;1.80;0.83;;;;;;;19.06;61.46;99028.47;5060879;28;20259;-50
2022/07/01 09:34:16;;;;;;;1.00;0.90;;;;;;;19.09;65.65;99028.06;5062142;28;20187;-52
2022/07/01 09:36:52;;;;;;;2.43;0.80;;;;;;;19.18;67.68;99029.53;5060756;28;20200;-50
2022/07/01 09:39:19;;;;;;;1.33;0.70;;;;;;;19.36;63.89;99029.00;5060953;28;20219;-50
2022/07/01 09:41:46;;;;;;;1.20;0.83;;;;;;;19.31;61.95;99028.78;5057747;28;20793;-49
2022/07/01 09:44:14;;;;;;;2.90;0.60;;;;;;;19.72;60.37;99032.34;5059099;28;20262;-50
2022/07/01 09:46:52;;;;;;;1.13;0.80;;;;;;;19.68;63.64;99031.13;5062567;28;20611;-49
2022/07/01 09:49:19;;;;;;;1.30;0.70;;;;;;;19.71;61.00;99030.72;5063386;28;20731;-50
2022/07/01 09:51:49;;;;;;;1.60;0.87;;;;;;;19.60;61.44;99030.28;5056749;28;20715;-52
2022/07/01 09:54:16;;;;;;;1.50;0.60;;;;;;;19.65;59.80;99032.31;5061870;28;20588;-51
2022/07/01 09:56:43;;;;;;;2.47;0.83;;;;;;;19.64;62.33;99037.84;5059874;28;20232;-51
2022/07/01 09:59:09;;;;;;;2.73;0.80;;;;;;;19.68;58.76;99036.41;5061234;28;20224;-50
2022/07/01 10:01:38;;;;;;;2.30;0.80;;;;;;;20.04;59.78;99040.59;5061611;28;20237;-50
2022/07/01 10:04:08;;;;;;;2.73;0.73;;;;;;;20.05;58.00;99034.28;5059724;28;20217;-51
2022/07/01 10:06:51;;;;;;;1.07;0.70;;;;;;;19.85;63.17;99035.03;5060394;28;20217;-51
2022/07/01 10:09:44;;;;;;;2.87;0.97;;;;;;;20.16;60.73;99046.09;5062010;28;20260;-52
2022/07/01 10:12:29;;;;;;;2.40;0.90;;;;;;;20.57;55.21;99039.78;5063056;28;20240;-52
2022/07/01 10:14:59;;;;;;;2.63;0.70;;;;;;;21.33;54.45;99048.13;5061202;28;20199;-52
2022/07/01 10:17:28;;;;;;;1.50;0.80;;;;;;;21.43;55.01;99049.53;5060138;28;20218;-52
2022/07/01 10:19:56;;;;;;;2.73;0.70;;;;;;;21.80;54.26;99041.81;5060757;28;20570;-51
2022/07/01 10:22:30;;;;;;;1.87;0.70;;;;;;;21.61;56.60;99044.34;5062428;28;20196;-51
2022/07/01 10:25:17;;;;;;;1.07;0.63;;;;;;;21.95;53.96;99047.66;5060869;28;20205;-51
2022/07/01 10:27:44;;;;;;;2.00;0.70;;;;;;;21.30;55.57;99045.91;5060935;28;20219;-52
2022/07/01 10:30:15;;;;;;;1.20;0.50;;;;;;;21.08;58.92;99040.91;5060000;28;20603;-52
2022/07/01 10:32:46;;;;;;;2.17;0.70;;;;;;;21.40;58.11;99053.44;5049647;28;20428;-50
2022/07/01 10:35:14;;;;;;;4.10;0.97;;;;;;;21.16;55.87;99052.31;5048631;28;20212;-51
2022/07/01 10:38:00;;;;;;;1.70;0.73;;;;;;;21.62;52.86;99051.31;5048110;28;20888;-51
2022/07/01 10:40:46;;;;;;;2.20;0.73;;;;;;;21.11;55.18;99047.63;5048959;28;20246;-50
2022/07/01 10:43:16;;;;;;;3.50;0.60;;;;;;;20.81;57.56;99056.06;5041780;28;20215;-50
2022/07/01 10:45:44;;;;;;;3.70;0.83;;;;;;;20.74;59.64;99047.28;5048015;28;20198;-50
2022/07/01 10:48:23;;;;;;;2.27;0.63;;;;;;;20.80;59.13;99051.78;5047962;28;20679;-51
2022/07/01 10:50:51;;;;;;;1.03;0.60;;;;;;;20.91;58.12;99042.38;5047485;28;20210;-52
2022/07/01 10:53:20;;;;;;;2.50;0.60;;;;;;;21.32;59.05;99051.03;5046137;28;20210;-51
2022/07/01 10:55:49;;;;;;;1.30;0.77;;;;;;;21.67;55.34;99045.38;5045243;28;20700;-50
2022/07/01 10:58:18;;;;;;;5.13;0.70;;;;;;;22.29;51.36;99050.06;5046520;28;20199;-50
2022/07/01 11:00:46;;;;;;;1.00;0.60;;;;;;;22.41;49.85;99056.28;5045638;28;20311;-51
2022/07/01 11:03:22;;;;;;;2.47;0.60;;;;;;;22.76;50.79;99057.63;5044415;28;20260;-51
2022/07/01 11:05:52;;;;;;;0.90;0.60;;;;;;;22.75;52.16;99053.34;5045818;28;20197;-51
2022/07/01 11:08:20;;;;;;;1.83;0.60;;;;;;;22.47;48.14;99046.63;5046960;28;20199;-52
2022/07/01 11:10:52;;;;;;;2.40;1.03;;;;;;;22.15;48.36;99049.34;5045766;28;20209;-51
2022/07/01 11:13:20;;;;;;;2.87;0.70;;;;;;;21.91;48.21;99049.09;5047239;28;20216;-52
2022/07/01 11:15:48;;;;;;;1.93;0.50;;;;;;;21.77;46.19;99053.66;5047482;28;20567;-50
2022/07/01 11:18:17;;;;;;;0.80;0.50;;;;;;;21.72;51.58;99053.53;5047646;28;20197;-50
2022/07/01 11:20:44;;;;;;;1.47;0.60;;;;;;;22.00;51.95;99054.97;5046891;28;20236;-50
2022/07/01 11:23:12;;;;;;;1.53;0.60;;;;;;;22.47;52.93;99057.28;5045758;28;20678;-50
2022/07/01 11:25:41;;;;;;;0.77;0.57;;;;;;;22.65;49.37;99055.69;5046010;28;20613;-52
2022/07/01 11:28:08;;;;;;;0.87;0.60;;;;;;;22.58;48.75;99060.25;5044460;28;20287;-53
2022/07/01 11:30:34;;;;;;;1.47;0.70;;;;;;;22.74;50.46;99059.69;5046200;28;20214;-51
2022/07/01 11:33:01;;;;;;;2.63;0.50;;;;;;;22.24;48.00;99069.31;5046250;28;20197;-50
2022/07/01 11:41:03;;;;;;;1.00;0.50;;;;;;;20.98;49.51;99069.72;5045050;28;20222;-50
2022/07/01 11:43:32;;;;;;;1.50;0.43;;;;;;;21.13;50.21;99071.31;5043689;28;20280;-50
2022/07/01 11:46:01;;;;;;;1.77;0.50;;;;;;;20.68;51.38;99079.91;5045389;28;20216;-51
2022/07/01 11:48:34;;;;;;;1.20;0.70;;;;;;;20.72;51.54;99079.31;5047210;28;20211;-50
2022/07/01 11:51:05;;;;;;;2.47;0.90;;;;;;;20.85;53.89;99080.34;5046599;28;20224;-51
2022/07/01 11:53:32;;;;;;;0.87;0.70;;;;;;;21.48;53.85;99079.75;5045061;28;20212;-51
2022/07/01 11:56:01;;;;;;;0.80;0.60;;;;;;;22.18;49.27;99064.03;5045180;28;20196;-51